createdAt,value
2022-07-27T00:01:25.296Z,0.90
2022-07-27T00:03:51.845Z,0.90
2022-07-27T00:06:18.355Z,1.10
2022-07-27T00:08:45.397Z,1.20
2022-07-27T00:11:12.058Z,0.90
2022-07-27T00:13:38.808Z,1.48
2022-07-27T00:16:05.819Z,0.80
2022-07-27T00:18:32.492Z,0.90
2022-07-27T00:20:58.935Z,1.02
2022-07-27T00:23:25.374Z,1.10
2022-07-27T00:25:52.104Z,1.10
2022-07-27T00:28:18.582Z,0.80
2022-07-27T00:30:45.230Z,1.23
2022-07-27T00:33:11.692Z,1.00
2022-07-27T00:38:10.314Z,0.93
2022-07-27T00:40:36.786Z,1.20
2022-07-27T00:43:03.322Z,1.08
2022-07-27T00:45:29.895Z,1.10
2022-07-27T00:47:56.363Z,1.20
2022-07-27T00:50:23.437Z,1.10
2022-07-27T00:52:50.023Z,1.60
2022-07-27T00:55:16.506Z,1.20
2022-07-27T00:57:58.947Z,0.90
2022-07-27T01:00:27.298Z,1.85
2022-07-27T01:02:53.920Z,1.10
2022-07-27T01:05:20.683Z,0.98
2022-07-27T01:07:48.796Z,1.77
2022-07-27T01:10:15.461Z,1.20
2022-07-27T01:12:42.045Z,1.10
2022-07-27T01:15:08.819Z,1.27
2022-07-27T01:17:35.593Z,1.35
2022-07-27T01:20:02.069Z,1.40
2022-07-27T01:22:28.652Z,1.13
2022-07-27T01:24:55.180Z,0.90
2022-07-27T01:27:22.009Z,1.40
2022-07-27T01:29:48.790Z,1.13
2022-07-27T01:32:15.594Z,1.20
2022-07-27T01:34:42.137Z,1.05
2022-07-27T01:37:08.687Z,1.33
2022-07-27T01:39:35.223Z,1.15
2022-07-27T01:42:02.108Z,1.25
2022-07-27T01:44:28.621Z,1.30
2022-07-27T01:46:55.350Z,1.13
2022-07-27T01:49:22.210Z,2.00
2022-07-27T01:51:48.936Z,1.23
2022-07-27T01:54:15.462Z,1.42
2022-07-27T01:56:41.927Z,1.33
2022-07-27T01:59:16.246Z,1.48
2022-07-27T02:01:44.484Z,2.40
2022-07-27T02:04:11.306Z,1.65
2022-07-27T02:06:37.859Z,1.48
2022-07-27T02:09:04.330Z,1.52
2022-07-27T02:11:49.372Z,1.70
2022-07-27T02:14:16.414Z,1.70
2022-07-27T02:20:30.997Z,2.15
2022-07-27T02:22:57.559Z,3.28
2022-07-27T02:25:24.015Z,1.67
2022-07-27T02:27:50.480Z,1.75
2022-07-27T02:30:17.883Z,2.00
2022-07-27T02:32:44.808Z,1.65
2022-07-27T02:35:19.423Z,2.00
2022-07-27T02:37:47.741Z,1.80
2022-07-27T02:40:17.325Z,1.88
2022-07-27T02:42:45.067Z,1.80
2022-07-27T02:45:11.547Z,2.30
2022-07-27T02:47:40.026Z,1.88
2022-07-27T02:50:07.521Z,2.08
2022-07-27T02:52:34.066Z,2.20
2022-07-27T02:55:00.502Z,2.17
2022-07-27T02:57:27.050Z,1.92
2022-07-27T02:59:53.518Z,1.95
2022-07-27T03:02:23.681Z,1.77
2022-07-27T03:04:50.229Z,1.80
2022-07-27T03:07:16.820Z,1.67
2022-07-27T03:09:43.279Z,1.83
2022-07-27T03:12:09.881Z,1.50
2022-07-27T03:14:36.378Z,1.95
2022-07-27T03:17:02.804Z,1.55
2022-07-27T03:23:18.036Z,1.85
2022-07-27T03:25:44.490Z,2.00
2022-07-27T03:28:11.054Z,1.80
2022-07-27T03:30:37.555Z,1.90
2022-07-27T03:33:04.085Z,2.28
2022-07-27T03:35:30.554Z,1.83
2022-07-27T03:37:57.015Z,2.15
2022-07-27T03:40:24.463Z,2.03
2022-07-27T03:42:50.947Z,2.42
2022-07-27T03:45:17.504Z,1.85
2022-07-27T03:47:44.092Z,2.25
2022-07-27T03:50:10.651Z,2.15
2022-07-27T03:52:37.170Z,1.92
2022-07-27T03:55:04.111Z,2.30
2022-07-27T03:57:30.677Z,2.20
2022-07-27T03:59:57.239Z,2.00
2022-07-27T04:02:23.800Z,2.42
2022-07-27T04:04:50.379Z,2.70
2022-07-27T04:07:16.849Z,2.92
2022-07-27T04:09:43.351Z,2.97
2022-07-27T04:12:12.575Z,3.13
2022-07-27T04:14:39.035Z,3.35
2022-07-27T04:17:05.635Z,2.78
2022-07-27T04:19:32.210Z,2.95
2022-07-27T04:21:58.733Z,2.90
2022-07-27T04:24:25.291Z,3.05
2022-07-27T04:30:32.409Z,4.00
2022-07-27T04:32:58.936Z,3.03
2022-07-27T04:35:26.723Z,3.75
2022-07-27T04:37:57.850Z,3.47
2022-07-27T04:40:24.660Z,3.27
2022-07-27T04:42:51.149Z,3.33
2022-07-27T04:45:17.676Z,4.20
2022-07-27T04:47:44.192Z,3.88
2022-07-27T04:50:10.699Z,3.92
2022-07-27T04:52:37.224Z,3.90
2022-07-27T04:55:04.070Z,4.68
2022-07-27T04:57:31.884Z,3.30
2022-07-27T04:59:58.558Z,3.80
2022-07-27T05:06:05.705Z,4.25
2022-07-27T05:08:32.227Z,4.38
2022-07-27T05:10:59.453Z,4.10
2022-07-27T05:17:06.500Z,4.55
2022-07-27T05:19:40.585Z,4.57
2022-07-27T05:22:08.141Z,4.40
2022-07-27T05:24:34.665Z,4.13
2022-07-27T05:27:01.105Z,3.90
2022-07-27T05:33:15.001Z,3.75
2022-07-27T05:35:41.708Z,4.35
2022-07-27T05:38:08.147Z,4.30
2022-07-27T05:40:34.626Z,3.85
2022-07-27T05:43:01.130Z,4.95
2022-07-27T05:45:27.650Z,4.20
2022-07-27T05:48:22.483Z,4.10
2022-07-27T05:50:49.133Z,3.70
2022-07-27T05:53:15.597Z,3.72
2022-07-27T05:55:59.150Z,2.90
2022-07-27T05:58:29.768Z,3.58
2022-07-27T06:00:57.079Z,2.88
2022-07-27T06:03:23.907Z,3.30
2022-07-27T06:05:50.574Z,2.65
2022-07-27T06:08:17.252Z,2.63
2022-07-27T06:10:43.781Z,2.80
2022-07-27T06:13:14.060Z,3.97
2022-07-27T06:15:40.641Z,2.90
2022-07-27T06:18:09.026Z,2.65
2022-07-27T06:20:35.705Z,2.75
2022-07-27T06:23:07.906Z,3.25
2022-07-27T06:29:22.112Z,1.67
2022-07-27T06:32:08.016Z,2.13
2022-07-27T06:34:36.321Z,1.50
2022-07-27T06:37:53.004Z,1.48
2022-07-27T06:40:20.250Z,1.63
2022-07-27T06:42:46.723Z,1.75
2022-07-27T06:45:27.604Z,1.60
2022-07-27T06:47:54.086Z,1.42
2022-07-27T06:50:20.883Z,2.05
2022-07-27T06:56:35.281Z,1.10
2022-07-27T06:59:01.929Z,1.20
2022-07-27T07:01:32.474Z,0.95
2022-07-27T07:03:59.831Z,0.85
2022-07-27T07:10:13.436Z,1.40
2022-07-27T07:13:06.423Z,1.70
2022-07-27T07:15:33.304Z,1.10
2022-07-27T07:17:59.863Z,1.13
2022-07-27T07:20:26.402Z,1.20
2022-07-27T07:22:52.980Z,1.88
2022-07-27T07:25:19.919Z,1.00
2022-07-27T07:27:46.383Z,1.65
2022-07-27T07:30:13.126Z,1.70
2022-07-27T07:32:40.885Z,2.05
2022-07-27T07:35:08.186Z,1.00
2022-07-27T07:37:34.850Z,0.77
2022-07-27T07:43:48.199Z,0.90
2022-07-27T07:46:15.154Z,1.30
2022-07-27T07:52:22.017Z,0.90
2022-07-27T07:54:48.524Z,1.55
2022-07-27T07:57:14.997Z,1.00
2022-07-27T07:59:41.449Z,0.75
2022-07-27T08:02:08.172Z,0.90
2022-07-27T08:08:16.879Z,2.17
2022-07-27T08:10:43.368Z,0.70
2022-07-27T08:13:09.791Z,1.00
2022-07-27T08:15:36.700Z,0.80
2022-07-27T08:18:04.859Z,0.90
2022-07-27T08:20:31.477Z,0.90
2022-07-27T08:22:57.876Z,0.90
2022-07-27T08:25:24.312Z,0.90
2022-07-27T08:27:50.800Z,0.80
2022-07-27T08:30:19.449Z,0.75
2022-07-27T08:32:54.823Z,0.88
2022-07-27T08:35:22.000Z,0.70
2022-07-27T08:37:48.496Z,0.65
2022-07-27T08:43:02.930Z,0.70
2022-07-27T08:45:31.517Z,0.77
2022-07-27T08:47:58.269Z,0.90
2022-07-27T08:50:24.853Z,0.80
2022-07-27T08:53:18.326Z,1.00
2022-07-27T08:55:46.499Z,1.55
2022-07-27T08:58:13.993Z,1.20
2022-07-27T09:00:45.604Z,1.02
2022-07-27T09:03:19.141Z,1.02
2022-07-27T09:05:55.108Z,1.13
2022-07-27T09:08:30.176Z,1.23
2022-07-27T09:10:59.111Z,1.08
2022-07-27T09:13:33.475Z,1.05
2022-07-27T09:16:21.235Z,0.80
2022-07-27T09:18:48.512Z,1.00
2022-07-27T09:21:22.804Z,1.30
2022-07-27T09:24:17.908Z,1.10
2022-07-27T09:27:02.295Z,1.20
2022-07-27T09:29:34.280Z,1.30
2022-07-27T09:32:00.692Z,1.02
2022-07-27T09:34:30.248Z,1.20
2022-07-27T09:36:58.570Z,1.15
2022-07-27T09:39:27.131Z,0.75
2022-07-27T09:42:00.080Z,0.90
2022-07-27T09:44:34.916Z,0.77
2022-07-27T09:47:30.088Z,0.77
2022-07-27T09:50:17.530Z,0.70
2022-07-27T09:52:44.424Z,0.82
2022-07-27T09:55:11.012Z,0.90
2022-07-27T09:57:54.693Z,0.63
2022-07-27T10:00:22.827Z,0.70
2022-07-27T10:02:52.063Z,0.90
2022-07-27T10:05:21.216Z,0.60
2022-07-27T10:07:48.792Z,0.80
2022-07-27T10:10:15.868Z,0.73
2022-07-27T10:12:49.204Z,0.88
2022-07-27T10:15:18.554Z,0.95
2022-07-27T10:17:45.491Z,1.08
2022-07-27T10:20:14.243Z,0.80
2022-07-27T10:22:55.162Z,0.80
2022-07-27T10:25:23.364Z,1.17
2022-07-27T10:28:16.438Z,0.93
2022-07-27T10:30:43.728Z,0.90
2022-07-27T10:33:43.268Z,0.80
2022-07-27T10:36:35.327Z,1.10
2022-07-27T10:39:05.495Z,1.23
2022-07-27T10:41:34.999Z,1.23
2022-07-27T10:44:27.966Z,0.93
2022-07-27T10:46:59.782Z,0.98
2022-07-27T10:49:40.292Z,0.95
2022-07-27T10:52:40.265Z,0.73
2022-07-27T10:55:08.734Z,1.33
2022-07-27T10:57:38.023Z,1.35
2022-07-27T11:00:13.331Z,1.10
2022-07-27T11:02:42.773Z,1.25
2022-07-27T11:06:31.509Z,0.85
2022-07-27T11:08:35.606Z,0.90
2022-07-27T11:10:45.251Z,0.80
2022-07-27T11:13:11.948Z,1.00
2022-07-27T11:15:38.447Z,0.75
2022-07-27T11:18:05.476Z,1.00
2022-07-27T11:20:32.032Z,1.08
2022-07-27T11:23:49.984Z,1.08
2022-07-27T11:26:01.157Z,0.80
2022-07-27T11:28:31.895Z,0.98
2022-07-27T11:30:59.137Z,1.10
2022-07-27T11:33:26.103Z,0.98
2022-07-27T11:35:58.295Z,0.70
2022-07-27T11:38:24.912Z,0.75
2022-07-27T11:40:57.313Z,0.73
2022-07-27T11:43:36.756Z,0.80
2022-07-27T11:46:14.346Z,1.15
2022-07-27T11:49:06.462Z,1.13
2022-07-27T11:51:36.076Z,1.33
2022-07-27T11:54:05.334Z,1.20
2022-07-27T11:56:33.715Z,1.75
2022-07-27T11:59:10.852Z,0.75
2022-07-27T12:01:42.210Z,0.90
2022-07-27T12:04:13.106Z,0.70
2022-07-27T12:06:41.615Z,0.93
2022-07-27T12:09:09.346Z,0.70
2022-07-27T12:11:54.180Z,1.17
2022-07-27T12:14:37.332Z,1.63
2022-07-27T12:17:18.884Z,0.80
2022-07-27T12:20:18.150Z,0.90
2022-07-27T12:22:50.206Z,0.90
2022-07-27T12:25:17.290Z,0.93
2022-07-27T12:27:58.616Z,1.15
2022-07-27T12:30:45.693Z,1.33
2022-07-27T12:33:36.901Z,0.98
2022-07-27T12:36:06.547Z,0.70
2022-07-27T12:38:43.500Z,1.00
2022-07-27T12:41:10.236Z,1.02
2022-07-27T12:43:36.997Z,0.70
2022-07-27T12:46:13.790Z,1.02
2022-07-27T12:48:41.831Z,0.82
2022-07-27T12:51:09.390Z,0.90
2022-07-27T12:53:37.066Z,1.13
2022-07-27T12:56:06.620Z,0.77
2022-07-27T12:58:33.258Z,0.90
2022-07-27T13:00:59.918Z,1.00
2022-07-27T13:03:26.589Z,0.93
2022-07-27T13:05:53.370Z,1.23
2022-07-27T13:08:19.935Z,1.15
2022-07-27T13:10:47.980Z,1.65
2022-07-27T13:13:15.028Z,0.73
2022-07-27T13:15:41.477Z,1.25
2022-07-27T13:18:08.519Z,1.38
2022-07-27T13:20:35.580Z,0.90
2022-07-27T13:23:02.051Z,0.90
2022-07-27T13:25:28.557Z,1.17
2022-07-27T13:27:55.170Z,0.90
2022-07-27T13:30:21.637Z,1.38
2022-07-27T13:32:48.104Z,1.10
2022-07-27T13:35:16.429Z,0.60
2022-07-27T13:37:43.334Z,0.80
2022-07-27T13:40:10.465Z,0.80
2022-07-27T13:42:37.520Z,0.85
2022-07-27T13:45:10.830Z,0.90
2022-07-27T13:47:39.558Z,0.80
2022-07-27T13:50:12.104Z,0.77
2022-07-27T13:52:44.278Z,0.73
2022-07-27T13:55:10.953Z,0.68
2022-07-27T13:57:37.383Z,0.95
2022-07-27T14:00:04.567Z,1.30
2022-07-27T14:02:31.236Z,1.17
2022-07-27T14:04:58.484Z,0.80
2022-07-27T14:07:28.264Z,0.98
2022-07-27T14:10:13.643Z,1.35
2022-07-27T14:12:40.244Z,0.70
2022-07-27T14:15:07.263Z,0.82
2022-07-27T14:17:33.695Z,0.77
2022-07-27T14:20:00.128Z,0.80
2022-07-27T14:22:26.579Z,0.88
2022-07-27T14:24:52.993Z,0.73
2022-07-27T14:27:19.500Z,0.77
2022-07-27T14:29:45.906Z,0.90
2022-07-27T14:32:12.342Z,1.23
2022-07-27T14:34:39.468Z,1.30
2022-07-27T14:37:06.314Z,0.80
2022-07-27T14:39:32.738Z,1.00
2022-07-27T14:41:59.165Z,1.08
2022-07-27T14:44:28.023Z,0.93
2022-07-27T14:46:54.489Z,0.93
2022-07-27T14:49:22.648Z,0.93
2022-07-27T14:51:49.360Z,1.23
2022-07-27T14:54:15.844Z,0.73
2022-07-27T14:56:42.274Z,0.95
2022-07-27T14:59:08.695Z,1.05
2022-07-27T15:01:35.163Z,1.42
2022-07-27T15:04:01.721Z,1.33
2022-07-27T15:06:28.214Z,1.80
2022-07-27T15:08:54.727Z,1.35
2022-07-27T15:11:21.337Z,1.23
2022-07-27T15:13:47.743Z,0.90
2022-07-27T15:16:14.320Z,0.90
2022-07-27T15:18:41.105Z,0.73
2022-07-27T15:21:13.652Z,0.70
2022-07-27T15:23:42.142Z,1.00
2022-07-27T15:26:08.589Z,1.13
2022-07-27T15:28:36.234Z,0.95
2022-07-27T15:31:02.750Z,0.65
2022-07-27T15:33:29.278Z,1.15
2022-07-27T15:35:56.373Z,1.15
2022-07-27T15:38:22.857Z,0.90
2022-07-27T15:40:49.302Z,1.02
2022-07-27T15:43:17.344Z,1.42
2022-07-27T15:45:47.578Z,0.85
2022-07-27T15:48:14.962Z,1.08
2022-07-27T15:50:43.598Z,0.80
2022-07-27T15:53:11.026Z,1.00
2022-07-27T15:55:37.810Z,1.58
2022-07-27T15:58:05.272Z,1.40
2022-07-27T16:00:35.648Z,1.00
2022-07-27T16:03:05.736Z,1.30
2022-07-27T16:05:32.622Z,1.00
2022-07-27T16:07:59.067Z,0.80
2022-07-27T16:10:25.456Z,0.80
2022-07-27T16:12:51.942Z,0.70
2022-07-27T16:15:18.432Z,0.60
2022-07-27T16:17:44.868Z,0.75
2022-07-27T16:20:11.574Z,0.80
2022-07-27T16:22:39.381Z,1.02
2022-07-27T16:25:06.078Z,0.98
2022-07-27T16:27:32.535Z,1.10
2022-07-27T16:29:58.949Z,0.90
2022-07-27T16:32:25.477Z,0.90
2022-07-27T16:34:51.895Z,0.75
2022-07-27T16:37:18.303Z,0.98
2022-07-27T16:39:44.701Z,1.10
2022-07-27T16:42:11.113Z,0.95
2022-07-27T16:44:39.977Z,0.80
2022-07-27T16:47:06.906Z,0.90
2022-07-27T16:49:37.112Z,0.77
2022-07-27T16:52:05.271Z,0.93
2022-07-27T16:54:35.556Z,0.85
2022-07-27T16:57:05.596Z,0.63
2022-07-27T16:59:31.995Z,0.95
2022-07-27T17:01:58.515Z,0.98
2022-07-27T17:04:25.113Z,0.90
2022-07-27T17:06:51.571Z,0.80
2022-07-27T17:09:18.156Z,0.88
2022-07-27T17:11:44.567Z,0.75
2022-07-27T17:14:16.369Z,0.98
2022-07-27T17:16:52.032Z,0.80
2022-07-27T17:19:19.074Z,0.70
2022-07-27T17:21:45.737Z,0.70
2022-07-27T17:24:12.225Z,0.70
2022-07-27T17:26:38.775Z,0.73
2022-07-27T17:29:05.800Z,0.80
2022-07-27T17:31:32.344Z,0.60
2022-07-27T17:33:58.863Z,0.80
2022-07-27T17:36:26.316Z,1.00
2022-07-27T17:38:52.788Z,0.70
2022-07-27T17:41:24.460Z,0.85
2022-07-27T17:43:52.616Z,0.80
2022-07-27T17:46:19.135Z,0.63
2022-07-27T17:48:45.668Z,0.63
2022-07-27T17:51:12.268Z,0.70
2022-07-27T17:53:38.884Z,0.63
2022-07-27T17:56:05.615Z,1.48
2022-07-27T17:58:32.054Z,0.60
2022-07-27T18:00:58.500Z,0.70
2022-07-27T18:03:24.914Z,0.50
2022-07-27T18:05:51.818Z,0.70
2022-07-27T18:08:18.357Z,0.68
2022-07-27T18:10:44.787Z,0.80
2022-07-27T18:13:11.275Z,0.80
2022-07-27T18:15:46.879Z,0.90
2022-07-27T18:18:15.796Z,1.17
2022-07-27T18:20:44.655Z,0.90
2022-07-27T18:23:11.143Z,0.95
2022-07-27T18:25:37.644Z,0.90
2022-07-27T18:28:04.232Z,0.88
2022-07-27T18:30:30.956Z,0.98
2022-07-27T18:32:57.376Z,1.10
2022-07-27T18:35:23.878Z,1.00
2022-07-27T18:37:50.442Z,1.27
2022-07-27T18:40:17.202Z,1.15
2022-07-27T18:42:43.665Z,0.90
2022-07-27T18:45:10.408Z,1.00
2022-07-27T18:47:37.553Z,0.93
2022-07-27T18:50:05.969Z,0.90
2022-07-27T18:52:32.581Z,0.90
2022-07-27T18:54:59.978Z,1.00
2022-07-27T18:57:26.416Z,0.90
2022-07-27T18:59:53.518Z,1.20
2022-07-27T19:02:20.723Z,1.20
2022-07-27T19:04:47.253Z,1.17
2022-07-27T19:07:15.606Z,1.20
2022-07-27T19:09:42.389Z,1.40
2022-07-27T19:12:09.883Z,1.00
2022-07-27T19:14:36.899Z,0.82
2022-07-27T19:17:03.471Z,1.27
2022-07-27T19:19:30.635Z,1.05
2022-07-27T19:21:57.523Z,1.05
2022-07-27T19:24:24.116Z,1.02
2022-07-27T19:26:50.662Z,1.20
2022-07-27T19:29:19.645Z,0.95
2022-07-27T19:31:46.112Z,1.10
2022-07-27T19:34:12.560Z,0.93
2022-07-27T19:36:39.127Z,1.33
2022-07-27T19:39:07.951Z,1.10
2022-07-27T19:41:34.883Z,0.95
2022-07-27T19:44:01.399Z,1.02
2022-07-27T19:46:27.890Z,1.30
2022-07-27T19:48:54.812Z,1.15
2022-07-27T19:51:21.349Z,1.48
2022-07-27T19:53:48.308Z,0.90
2022-07-27T19:56:14.853Z,1.85
2022-07-27T19:58:41.478Z,0.90
2022-07-27T20:01:09.548Z,1.25
2022-07-27T20:03:52.083Z,1.27
2022-07-27T20:06:20.994Z,1.48
2022-07-27T20:08:47.930Z,1.63
2022-07-27T20:11:14.378Z,1.38
2022-07-27T20:13:40.793Z,1.45
2022-07-27T20:16:07.262Z,1.20
2022-07-27T20:18:35.599Z,1.10
2022-07-27T20:21:02.311Z,1.60
2022-07-27T20:23:29.100Z,1.60
2022-07-27T20:25:55.574Z,1.83
2022-07-27T20:28:21.996Z,1.23
2022-07-27T20:30:48.483Z,1.40
2022-07-27T20:33:19.443Z,1.40
2022-07-27T20:35:45.937Z,0.88
2022-07-27T20:38:12.430Z,1.05
2022-07-27T20:40:38.860Z,1.30
2022-07-27T20:43:05.309Z,1.50
2022-07-27T20:45:31.825Z,1.33
2022-07-27T20:47:58.319Z,1.40
2022-07-27T20:50:24.849Z,1.33
2022-07-27T20:52:51.277Z,1.23
2022-07-27T20:55:17.725Z,1.40
2022-07-27T20:57:44.137Z,1.40
2022-07-27T21:00:11.378Z,1.50
2022-07-27T21:02:38.055Z,1.65
2022-07-27T21:05:06.160Z,1.65
2022-07-27T21:07:32.646Z,1.50
2022-07-27T21:09:59.074Z,1.67
2022-07-27T21:12:25.548Z,1.45
2022-07-27T21:14:52.150Z,1.55
2022-07-27T21:17:18.618Z,1.38
2022-07-27T21:19:45.053Z,1.60
2022-07-27T21:22:11.467Z,1.33
2022-07-27T21:24:37.869Z,2.08
2022-07-27T21:27:05.036Z,1.42
2022-07-27T21:29:31.983Z,1.90
2022-07-27T21:31:58.564Z,1.55
2022-07-27T21:34:24.977Z,1.50
2022-07-27T21:36:51.563Z,1.45
2022-07-27T21:39:18.179Z,1.48
2022-07-27T21:41:44.973Z,1.52
2022-07-27T21:44:11.838Z,1.20
2022-07-27T21:46:38.483Z,1.50
2022-07-27T21:49:05.053Z,1.75
2022-07-27T21:51:31.551Z,1.27
2022-07-27T21:53:58.049Z,1.02
2022-07-27T21:56:24.586Z,1.42
2022-07-27T21:58:51.014Z,1.10
2022-07-27T22:01:17.699Z,1.00
2022-07-27T22:03:44.398Z,1.02
2022-07-27T22:06:11.082Z,1.20
2022-07-27T22:08:37.758Z,1.10
2022-07-27T22:11:04.827Z,1.10
2022-07-27T22:13:31.902Z,0.90
2022-07-27T22:15:58.357Z,1.17
2022-07-27T22:18:25.044Z,1.05
2022-07-27T22:20:51.480Z,1.10
2022-07-27T22:23:18.302Z,1.00
2022-07-27T22:25:44.718Z,0.95
2022-07-27T22:28:11.163Z,0.85
2022-07-27T22:30:37.578Z,1.02
2022-07-27T22:33:04.079Z,0.93
2022-07-27T22:35:30.543Z,0.80
2022-07-27T22:37:57.039Z,0.80
2022-07-27T22:40:24.399Z,1.08
2022-07-27T22:42:50.831Z,0.70
2022-07-27T22:45:17.711Z,1.05
2022-07-27T22:47:44.207Z,0.90
2022-07-27T22:50:13.379Z,0.90
2022-07-27T22:52:44.812Z,1.00
2022-07-27T22:55:11.221Z,1.05
2022-07-27T22:57:37.689Z,1.00
2022-07-27T23:00:08.907Z,1.17
2022-07-27T23:02:35.549Z,1.27
2022-07-27T23:05:02.021Z,1.50
2022-07-27T23:07:28.565Z,1.00
2022-07-27T23:09:57.008Z,0.90
2022-07-27T23:12:24.196Z,0.90
2022-07-27T23:14:50.893Z,0.93
2022-07-27T23:17:17.341Z,1.20
2022-07-27T23:19:43.786Z,1.10
2022-07-27T23:22:11.650Z,1.00
2022-07-27T23:24:38.357Z,1.05
2022-07-27T23:27:07.502Z,1.48
2022-07-27T23:29:33.912Z,1.27
2022-07-27T23:32:00.529Z,0.90
2022-07-27T23:34:28.990Z,1.10
2022-07-27T23:36:55.694Z,0.90
2022-07-27T23:39:22.099Z,0.80
2022-07-27T23:41:50.131Z,1.20
2022-07-27T23:44:17.336Z,1.15
2022-07-27T23:46:43.993Z,1.17
2022-07-27T23:49:10.571Z,1.40
2022-07-27T23:51:37.139Z,1.00
2022-07-27T23:54:03.662Z,1.13
2022-07-27T23:56:30.090Z,1.35
2022-07-27T23:58:56.495Z,1.33
